Time;durP1;ratioP1;P1;durP2;ratioP2;P2;SDS_P1;SDS_P2;PMS_P1;PMS_P2;Temp;Humidity;BMP_temperature;BMP_pressure;BME280_temperature;BME280_humidity;BME280_pressure;Samples;Min_cycle;Max_cycle;Signal;HPM_P1;HPM_P2
2022/05/02 00:00:20;;;;;;;14.33;10.00;;;;;;;21.66;53.48;98814.94;1677302;84;25646;-89
2022/05/02 00:02:46;;;;;;;14.53;9.85;;;;;;;21.66;53.47;98814.13;1699253;82;25503;-89
2022/05/02 00:05:12;;;;;;;15.20;10.60;;;;;;;21.65;53.51;98820.28;1699350;84;26078;-89
2022/05/02 00:07:39;;;;;;;15.32;10.78;;;;;;;21.64;53.49;98810.91;1677239;84;25719;-88
2022/05/02 00:10:07;;;;;;;13.72;10.05;;;;;;;21.64;53.46;98810.91;1699326;84;27459;-89
2022/05/02 00:12:33;;;;;;;14.93;10.65;;;;;;;21.63;53.50;98807.34;1699315;84;25446;-89
2022/05/02 00:14:59;;;;;;;16.37;10.78;;;;;;;21.63;53.49;98803.73;1699388;84;25624;-88
2022/05/02 00:20:10;;;;;;;17.27;10.90;;;;;;;21.63;53.50;98805.13;1698972;84;25469;-88
2022/05/02 00:22:36;;;;;;;14.05;10.08;;;;;;;21.61;53.47;98800.52;1699280;83;27319;-88
2022/05/02 00:25:04;;;;;;;16.55;10.15;;;;;;;21.60;53.51;98804.50;1699317;84;25609;-88
2022/05/02 00:27:30;;;;;;;14.95;10.65;;;;;;;21.60;53.49;98803.92;1699262;84;25512;-88
2022/05/02 00:29:56;;;;;;;15.80;10.82;;;;;;;21.61;53.42;98806.09;1699229;83;26758;-88
2022/05/02 00:32:22;;;;;;;16.65;10.78;;;;;;;21.60;53.46;98810.89;1695239;83;25495;-88
2022/05/02 00:34:47;;;;;;;14.85;10.68;;;;;;;21.60;53.42;98810.09;1689878;83;27387;-88
2022/05/02 00:37:15;;;;;;;16.00;10.55;;;;;;;21.59;53.47;98812.67;1689838;84;26357;-88
2022/05/02 00:39:41;;;;;;;17.80;11.53;;;;;;;21.60;53.47;98811.48;1690829;83;25781;-89
2022/05/02 00:42:07;;;;;;;15.72;10.35;;;;;;;21.60;53.37;98807.30;1690520;83;25961;-88
2022/05/02 00:44:33;;;;;;;18.48;12.03;;;;;;;21.60;53.42;98801.72;1690732;84;25836;-88
2022/05/02 00:46:59;;;;;;;18.07;11.33;;;;;;;21.59;53.40;98800.94;1691229;84;27472;-88
2022/05/02 00:49:25;;;;;;;16.90;10.90;;;;;;;21.60;53.38;98801.72;1691274;83;25703;-89
2022/05/02 00:51:51;;;;;;;17.30;11.57;;;;;;;21.59;53.47;98804.31;1691624;83;25665;-88
2022/05/02 00:54:18;;;;;;;15.43;11.15;;;;;;;21.59;53.39;98804.31;1676918;84;26074;-88
2022/05/02 00:56:44;;;;;;;17.02;11.45;;;;;;;21.57;53.45;98810.27;1663398;85;25717;-89
2022/05/02 00:59:14;;;;;;;17.52;10.98;;;;;;;21.58;53.41;98812.48;1663344;85;27321;-88
2022/05/02 01:01:41;;;;;;;17.65;11.55;;;;;;;21.59;53.45;98809.89;1663238;85;25710;-89
2022/05/02 01:04:07;;;;;;;17.23;10.70;;;;;;;21.59;53.40;98807.91;1663250;84;25769;-88
2022/05/02 01:09:18;;;;;;;17.62;11.38;;;;;;;21.57;53.36;98804.70;1662991;86;25397;-88
2022/05/02 01:11:44;;;;;;;18.87;11.55;;;;;;;21.55;53.39;98800.90;1663206;85;28437;-89
2022/05/02 01:14:10;;;;;;;17.10;11.53;;;;;;;21.55;53.33;98795.91;1663232;85;25756;-89
2022/05/02 01:16:36;;;;;;;16.73;11.38;;;;;;;21.56;53.39;98800.31;1663229;86;25687;-89
2022/05/02 01:19:02;;;;;;;16.87;11.65;;;;;;;21.55;53.36;98794.51;1663234;85;26058;-88
2022/05/02 01:21:30;;;;;;;17.23;11.35;;;;;;;21.54;53.33;98797.91;1663242;85;25774;-89
2022/05/02 01:24:04;;;;;;;17.57;11.50;;;;;;;21.52;53.43;98797.48;1663221;85;28191;-88
2022/05/02 01:26:30;;;;;;;15.45;10.78;;;;;;;21.52;53.44;98788.30;1663111;85;25703;-89
2022/05/02 01:28:59;;;;;;;17.20;11.50;;;;;;;21.52;53.40;98791.91;1663269;84;25662;-89
2022/05/02 01:31:26;;;;;;;15.28;11.35;;;;;;;21.52;53.35;98782.73;1663182;84;26107;-88
2022/05/02 01:33:53;;;;;;;16.73;10.82;;;;;;;21.51;53.37;98782.53;1663254;85;25607;-89
2022/05/02 01:36:21;;;;;;;18.00;11.80;;;;;;;21.52;53.37;98784.13;1663178;85;28433;-89
2022/05/02 01:38:47;;;;;;;18.45;12.00;;;;;;;21.50;53.31;98774.75;1663240;85;25532;-88
2022/05/02 01:41:13;;;;;;;16.35;11.65;;;;;;;21.50;53.35;98777.54;1663301;85;25496;-88
2022/05/02 01:43:42;;;;;;;16.07;11.45;;;;;;;21.49;53.42;98780.13;1663306;85;25942;-89
2022/05/02 01:46:10;;;;;;;15.72;10.43;;;;;;;21.50;53.36;98778.94;1662912;86;25458;-88
2022/05/02 01:48:36;;;;;;;17.12;11.35;;;;;;;21.50;53.43;98785.12;1663217;85;27442;-89
2022/05/02 01:51:02;;;;;;;18.98;12.13;;;;;;;21.50;53.38;98783.73;1663232;85;25743;-89
2022/05/02 01:53:29;;;;;;;17.50;11.68;;;;;;;21.51;53.36;98789.50;1663161;83;25801;-88
2022/05/02 01:55:55;;;;;;;19.20;11.83;;;;;;;21.48;53.33;98791.08;1663231;85;26812;-88
2022/05/02 01:58:21;;;;;;;17.85;11.55;;;;;;;21.48;53.31;98791.66;1663385;85;25648;-89
2022/05/02 02:00:48;;;;;;;17.35;11.53;;;;;;;21.48;53.34;98788.87;1663218;84;28250;-89
2022/05/02 02:03:15;;;;;;;17.07;11.38;;;;;;;21.47;53.35;98785.28;1663083;86;25611;-89
2022/05/02 02:05:50;;;;;;;18.45;11.40;;;;;;;21.46;53.37;98785.08;1663164;86;25477;-89
2022/05/02 02:08:26;;;;;;;16.35;11.85;;;;;;;21.48;53.33;98784.70;1663176;85;26056;-89
2022/05/02 02:10:56;;;;;;;15.48;11.63;;;;;;;21.48;53.33;98777.14;1663012;85;25704;-88
2022/05/02 02:13:23;;;;;;;17.45;11.90;;;;;;;21.48;53.29;98779.13;1663250;86;27314;-89
2022/05/02 02:15:49;;;;;;;15.98;11.55;;;;;;;21.47;53.31;98772.73;1663093;85;25935;-88
2022/05/02 02:18:15;;;;;;;18.30;11.65;;;;;;;21.47;53.25;98770.56;1663267;85;25595;-89
2022/05/02 02:20:45;;;;;;;16.57;12.50;;;;;;;21.47;53.25;98767.77;1663154;85;25995;-88
2022/05/02 02:23:13;;;;;;;18.40;12.35;;;;;;;21.46;53.33;98773.93;1663211;84;25707;-89
2022/05/02 02:25:40;;;;;;;17.25;12.03;;;;;;;21.44;53.28;98775.70;1663079;85;28288;-89
2022/05/02 02:28:06;;;;;;;18.52;12.18;;;;;;;21.44;53.24;98770.13;1662841;85;25715;-89
2022/05/02 02:30:32;;;;;;;18.17;12.45;;;;;;;21.46;53.26;98773.12;1663286;85;25450;-88
2022/05/02 02:33:00;;;;;;;21.85;12.53;;;;;;;21.46;53.24;98774.52;1663218;85;25979;-89
2022/05/02 02:35:28;;;;;;;18.05;11.95;;;;;;;21.44;53.25;98776.29;1663198;85;25444;-88
2022/05/02 02:37:54;;;;;;;18.82;12.43;;;;;;;21.45;53.19;98779.31;1663167;86;28214;-89
2022/05/02 02:40:20;;;;;;;18.40;12.63;;;;;;;21.44;53.21;98777.69;1663171;84;25482;-89
2022/05/02 02:42:46;;;;;;;17.77;12.50;;;;;;;21.46;53.19;98787.05;1663347;85;25763;-89
2022/05/02 02:45:13;;;;;;;17.57;12.00;;;;;;;21.45;53.14;98783.48;1663224;86;26050;-89
2022/05/02 02:47:39;;;;;;;17.12;11.68;;;;;;;21.46;53.17;98788.45;1663173;85;25694;-88
2022/05/02 02:50:06;;;;;;;18.25;12.07;;;;;;;21.43;53.11;98792.23;1663266;85;28245;-88
2022/05/02 02:52:32;;;;;;;18.42;12.23;;;;;;;21.43;53.18;98788.05;1663089;84;25718;-89
2022/05/02 02:54:58;;;;;;;17.42;11.85;;;;;;;21.42;53.19;98790.61;1663006;83;25486;-89
2022/05/02 02:57:24;;;;;;;17.82;12.70;;;;;;;21.44;53.17;98790.23;1663225;85;26022;-89
2022/05/02 02:59:50;;;;;;;18.12;12.82;;;;;;;21.44;53.12;98788.25;1663188;85;25738;-88
2022/05/02 03:02:16;;;;;;;16.65;11.97;;;;;;;21.43;53.15;98783.06;1663265;85;27407;-88
2022/05/02 03:07:28;;;;;;;16.45;12.07;;;;;;;21.44;53.07;98785.47;1662815;86;25706;-88
2022/05/02 03:09:57;;;;;;;18.20;12.58;;;;;;;21.45;53.08;98782.09;1663206;85;26014;-88
2022/05/02 03:12:23;;;;;;;19.82;12.58;;;;;;;21.45;53.03;98783.48;1663147;86;25466;-89
2022/05/02 03:14:49;;;;;;;18.62;12.85;;;;;;;21.46;53.06;98784.27;1663142;85;27444;-88
2022/05/02 03:17:15;;;;;;;19.48;12.85;;;;;;;21.45;53.06;98783.48;1663137;84;25441;-88
2022/05/02 03:19:42;;;;;;;17.87;12.63;;;;;;;21.44;53.04;98781.28;1663166;85;25727;-88
2022/05/02 03:22:08;;;;;;;17.45;12.40;;;;;;;21.42;53.02;98784.25;1663150;85;26069;-88
2022/05/02 03:24:34;;;;;;;18.40;12.18;;;;;;;21.43;53.08;98778.30;1663258;86;25670;-88
2022/05/02 03:27:00;;;;;;;19.30;12.70;;;;;;;21.42;53.07;98776.67;1663118;85;27471;-88
2022/05/02 03:29:25;;;;;;;18.65;12.95;;;;;;;21.44;53.05;98772.11;1663185;85;25707;-89
2022/05/02 03:31:52;;;;;;;18.00;12.25;;;;;;;21.43;52.99;98771.91;1663165;84;25501;-88
2022/05/02 03:34:18;;;;;;;19.82;12.50;;;;;;;21.44;53.00;98773.50;1663227;85;26057;-88
2022/05/02 03:36:44;;;;;;;19.73;13.13;;;;;;;21.43;53.06;98776.09;1663141;85;25647;-88
2022/05/02 03:39:10;;;;;;;18.87;12.23;;;;;;;21.43;52.99;98769.13;1663249;85;27391;-89
2022/05/02 03:41:36;;;;;;;17.87;12.53;;;;;;;21.43;53.00;98767.14;1663222;85;25512;-88
2022/05/02 03:44:02;;;;;;;18.32;12.93;;;;;;;21.43;52.99;98767.14;1663280;85;25505;-88
2022/05/02 03:46:28;;;;;;;17.70;12.85;;;;;;;21.43;52.99;98774.11;1663249;85;26064;-89
2022/05/02 03:48:54;;;;;;;17.70;12.30;;;;;;;21.43;52.96;98768.54;1663248;85;25691;-88
2022/05/02 03:51:20;;;;;;;19.35;12.75;;;;;;;21.42;52.94;98770.31;1663168;84;27473;-88
2022/05/02 03:53:46;;;;;;;18.90;13.18;;;;;;;21.42;52.93;98768.92;1663034;85;25726;-89
2022/05/02 03:56:13;;;;;;;19.50;13.25;;;;;;;21.40;53.00;98769.31;1663010;84;25702;-89
2022/05/02 03:58:39;;;;;;;18.90;13.53;;;;;;;21.40;52.97;98773.48;1663152;84;26642;-89
2022/05/02 04:01:05;;;;;;;16.07;12.30;;;;;;;21.40;53.05;98769.89;1663148;85;25693;-88
2022/05/02 04:03:31;;;;;;;18.05;12.68;;;;;;;21.40;52.98;98774.89;1663192;85;27482;-88
2022/05/02 04:05:57;;;;;;;18.60;12.75;;;;;;;21.39;52.98;98770.47;1663129;85;25494;-90
2022/05/02 04:08:23;;;;;;;18.87;13.03;;;;;;;21.40;53.00;98773.48;1663231;85;25480;-89
2022/05/02 04:10:49;;;;;;;18.40;13.18;;;;;;;21.39;52.96;98771.87;1663312;85;26038;-88
2022/05/02 04:13:15;;;;;;;19.87;13.93;;;;;;;21.39;53.07;98771.09;1663350;85;25643;-88
2022/05/02 04:15:41;;;;;;;19.30;12.95;;;;;;;21.38;53.01;98767.48;1663237;85;27468;-88
2022/05/02 04:18:08;;;;;;;18.05;13.78;;;;;;;21.40;52.99;98774.07;1662964;85;25756;-89
2022/05/02 04:20:34;;;;;;;18.15;12.33;;;;;;;21.41;53.04;98776.48;1662867;85;25461;-89
2022/05/02 04:23:00;;;;;;;16.93;12.85;;;;;;;21.40;52.94;98777.67;1663202;85;26061;-89
2022/05/02 04:25:26;;;;;;;17.25;12.73;;;;;;;21.42;53.02;98780.08;1663385;84;25426;-88
2022/05/02 04:27:52;;;;;;;17.77;12.68;;;;;;;21.44;52.91;98778.49;1663269;85;27355;-89
2022/05/02 04:30:18;;;;;;;18.95;12.80;;;;;;;21.42;52.90;98780.08;1663272;86;25446;-89
2022/05/02 04:32:44;;;;;;;18.98;12.88;;;;;;;21.41;52.94;98779.27;1663342;84;25608;-89
2022/05/02 04:35:10;;;;;;;18.10;13.03;;;;;;;21.42;52.98;98781.47;1663211;85;25986;-88
2022/05/02 04:37:38;;;;;;;20.60;13.58;;;;;;;21.41;52.98;98779.27;1663449;85;25670;-89
2022/05/02 04:40:05;;;;;;;18.73;13.10;;;;;;;21.42;52.97;98789.83;1663242;85;27466;-88
2022/05/02 04:42:32;;;;;;;18.77;13.15;;;;;;;21.41;52.99;98782.05;1663322;86;25681;-89
2022/05/02 04:44:58;;;;;;;18.62;13.20;;;;;;;21.40;53.02;98781.85;1663284;85;25453;-88
2022/05/02 04:47:24;;;;;;;17.32;12.55;;;;;;;21.41;53.06;98779.84;1663284;85;26040;-89
2022/05/02 04:49:49;;;;;;;18.23;12.80;;;;;;;21.43;53.06;98785.84;1663410;85;25716;-88
2022/05/02 04:52:15;;;;;;;18.48;13.05;;;;;;;21.43;53.06;98780.27;1663225;85;27380;-88
2022/05/02 04:54:41;;;;;;;18.62;13.35;;;;;;;21.44;53.06;98783.26;1663164;84;25736;-88
2022/05/02 04:57:07;;;;;;;16.50;12.55;;;;;;;21.46;53.04;98780.09;1663351;85;25523;-88
2022/05/02 04:59:33;;;;;;;17.50;13.13;;;;;;;21.45;53.05;98780.70;1663271;85;26867;-89
2022/05/02 05:01:59;;;;;;;18.40;12.73;;;;;;;21.45;53.05;98780.70;1663424;85;25627;-89
2022/05/02 05:04:26;;;;;;;19.87;12.65;;;;;;;21.47;53.11;98783.11;1663326;85;28280;-88
2022/05/02 05:06:52;;;;;;;19.37;13.32;;;;;;;21.47;53.17;98783.88;1663134;84;25504;-88
2022/05/02 05:09:18;;;;;;;20.35;13.30;;;;;;;21.48;53.18;98781.91;1663243;85;25454;-89
2022/05/02 05:12:29;;;;;;;18.70;13.98;;;;;;;21.48;53.10;98784.70;1663229;85;25873;-89
2022/05/02 05:18:43;;;;;;;19.92;14.03;;;;;;;21.49;52.92;98787.68;1662979;86;26716;-88
2022/05/02 05:21:26;;;;;;;20.52;14.47;;;;;;;21.48;52.78;98792.48;1663211;84;25671;-88
2022/05/02 05:24:24;;;;;;;21.17;14.25;;;;;;;21.47;52.65;98792.25;1663246;85;25493;-88
2022/05/02 05:27:12;;;;;;;20.75;14.70;;;;;;;21.48;52.54;98796.66;1662687;85;26195;-88
2022/05/02 05:29:59;;;;;;;20.80;13.88;;;;;;;21.46;52.52;98792.05;1656199;85;25719;-88
2022/05/02 05:32:58;;;;;;;17.85;14.13;;;;;;;21.48;52.54;98794.45;1661556;85;27479;-88
2022/05/02 05:35:35;;;;;;;20.92;13.90;;;;;;;21.48;52.58;98787.48;1661905;85;26015;-88
2022/05/02 05:38:09;;;;;;;18.23;13.50;;;;;;;21.50;52.56;98786.52;1660695;85;25679;-88
2022/05/02 05:40:42;;;;;;;18.77;13.98;;;;;;;21.51;52.56;98781.14;1686093;84;25691;-88
2022/05/02 05:43:36;;;;;;;18.55;14.03;;;;;;;21.54;52.50;98777.58;1681164;84;26532;-88
2022/05/02 05:46:53;;;;;;;20.10;14.00;;;;;;;21.57;52.48;98779.59;1640220;85;27415;-88
2022/05/02 05:49:36;;;;;;;19.42;13.38;;;;;;;21.59;52.52;98776.42;1679439;85;25238;-89
2022/05/02 05:52:20;;;;;;;18.98;13.72;;;;;;;21.57;52.60;98778.20;1680447;84;25604;-89
2022/05/02 05:55:05;;;;;;;18.32;13.35;;;;;;;21.58;52.62;98781.80;1679624;85;25994;-88
2022/05/02 05:57:51;;;;;;;18.45;13.65;;;;;;;21.60;52.67;98787.19;1701940;84;25487;-89
2022/05/02 06:00:19;;;;;;;18.35;13.65;;;;;;;21.61;52.74;98785.19;1702099;84;28127;-89
2022/05/02 06:03:08;;;;;;;18.23;13.43;;;;;;;21.63;52.80;98781.43;1701799;83;25660;-88
2022/05/02 06:05:46;;;;;;;19.60;13.68;;;;;;;21.65;52.81;98785.42;1701696;84;25706;-89
2022/05/02 06:08:22;;;;;;;21.23;13.32;;;;;;;21.67;52.84;98791.42;1701794;84;26001;-88
2022/05/02 06:10:51;;;;;;;19.82;13.90;;;;;;;21.68;52.96;98783.88;1701892;84;25432;-89
2022/05/02 06:13:19;;;;;;;18.90;13.48;;;;;;;21.70;52.94;98784.27;1701040;84;28221;-89
2022/05/02 06:18:37;;;;;;;18.50;13.45;;;;;;;21.74;53.36;98785.70;1684503;84;25460;-88
2022/05/02 06:21:06;;;;;;;18.60;13.32;;;;;;;21.76;53.46;98779.19;1701808;82;26875;-89
2022/05/02 06:23:41;;;;;;;21.97;13.85;;;;;;;21.79;53.57;98784.77;1701871;84;25610;-89
2022/05/02 06:26:09;;;;;;;19.70;13.00;;;;;;;21.82;53.63;98780.42;1701947;84;27428;-89
2022/05/02 06:28:42;;;;;;;18.17;13.08;;;;;;;21.86;53.71;98779.04;1701765;82;27039;-89
2022/05/02 06:31:16;;;;;;;17.85;12.80;;;;;;;21.88;53.74;98776.06;1701372;84;25645;-89
2022/05/02 06:33:44;;;;;;;20.52;13.65;;;;;;;21.94;53.80;98786.28;1701229;84;26032;-89
2022/05/02 06:36:35;;;;;;;18.42;12.95;;;;;;;21.97;53.81;98781.32;1681534;84;25650;-89
2022/05/02 06:39:46;;;;;;;19.27;12.95;;;;;;;22.00;53.90;98787.52;1701704;84;27428;-89
2022/05/02 06:42:45;;;;;;;16.65;12.78;;;;;;;22.06;53.91;98783.76;1701989;84;25623;-89
2022/05/02 06:45:31;;;;;;;16.23;12.53;;;;;;;22.10;53.97;98782.40;1701941;84;25671;-89
2022/05/02 06:48:37;;;;;;;16.82;12.15;;;;;;;22.13;53.99;98785.80;1701528;84;26049;-88
2022/05/02 06:51:23;;;;;;;17.60;12.47;;;;;;;22.16;54.00;98787.20;1701817;82;25716;-88
2022/05/02 06:54:07;;;;;;;17.48;12.35;;;;;;;22.22;54.04;98790.42;1701718;84;28467;-88
2022/05/02 06:56:41;;;;;;;18.10;12.18;;;;;;;22.25;54.11;98784.67;1699418;83;25601;-89
2022/05/02 06:59:18;;;;;;;15.98;11.70;;;;;;;22.28;54.12;98782.50;1699361;84;25715;-89
2022/05/02 07:01:53;;;;;;;17.52;13.03;;;;;;;22.30;54.07;98787.89;1699512;84;26055;-88
2022/05/02 07:04:34;;;;;;;16.20;11.93;;;;;;;22.34;54.11;98790.70;1699182;84;25506;-88
2022/05/02 07:07:17;;;;;;;15.93;12.15;;;;;;;22.38;54.10;98787.33;1697963;84;27458;-88
2022/05/02 07:09:53;;;;;;;15.53;11.20;;;;;;;22.42;54.14;98787.33;1699123;84;25625;-88
2022/05/02 07:12:22;;;;;;;15.75;11.80;;;;;;;22.44;54.10;98788.56;1699299;84;25736;-88
2022/05/02 07:15:26;;;;;;;18.30;11.97;;;;;;;22.48;54.16;98788.55;1699439;83;26055;-89
2022/05/02 07:18:00;;;;;;;16.30;11.25;;;;;;;22.53;54.11;98792.97;1699212;84;25518;-89
2022/05/02 07:21:21;;;;;;;18.35;11.80;;;;;;;22.56;54.03;98790.78;1699339;84;27387;-88
2022/05/02 07:24:01;;;;;;;17.05;11.35;;;;;;;22.59;54.01;98792.83;1672965;85;25508;-88
2022/05/02 07:26:28;;;;;;;;;;;;;;;22.64;53.90;98795.25;1675679;85;25262;-88
2022/05/02 07:29:01;;;;;;;18.77;11.88;;;;;;;22.66;53.79;98794.27;1672780;84;25787;-88
2022/05/02 07:31:29;;;;;;;15.60;11.53;;;;;;;22.69;53.77;98796.25;1673200;85;25584;-88
2022/05/02 07:33:55;;;;;;;14.13;10.63;;;;;;;22.73;53.70;98795.47;1672723;84;27385;-88
2022/05/02 07:36:25;;;;;;;17.35;11.70;;;;;;;22.75;53.66;98796.70;1673060;84;25822;-88
2022/05/02 07:38:56;;;;;;;14.00;11.00;;;;;;;22.80;53.61;98803.89;1673352;85;25724;-88
2022/05/02 07:41:25;;;;;;;14.43;10.90;;;;;;;22.84;53.60;98799.70;1672909;85;26927;-88
2022/05/02 07:44:12;;;;;;;13.93;10.78;;;;;;;22.85;53.51;98792.32;1673058;85;25479;-89
2022/05/02 07:46:42;;;;;;;15.15;11.28;;;;;;;22.88;53.45;98801.31;1672891;85;28372;-89
2022/05/02 07:49:10;;;;;;;14.13;10.78;;;;;;;22.91;53.43;98794.16;1673163;85;33394;-88
2022/05/02 07:51:50;;;;;;;13.88;10.85;;;;;;;22.93;53.43;98792.56;1673054;85;25709;-88
2022/05/02 07:54:26;;;;;;;14.67;10.87;;;;;;;22.94;53.36;98789.95;1673122;85;25747;-88
2022/05/02 07:56:57;;;;;;;15.05;10.68;;;;;;;22.98;53.30;98786.38;1675548;84;25757;-90
2022/05/02 07:59:37;;;;;;;13.85;10.35;;;;;;;22.99;53.29;98787.38;1698368;84;27462;-89
2022/05/02 08:02:05;;;;;;;14.55;10.40;;;;;;;23.02;53.33;98785.77;1699245;84;25462;-89
2022/05/02 08:04:32;;;;;;;13.30;10.53;;;;;;;23.04;53.23;98779.20;1699045;83;25676;-89
2022/05/02 08:07:15;;;;;;;15.48;10.63;;;;;;;23.05;53.20;98778.81;1699187;83;26208;-89
2022/05/02 08:10:18;;;;;;;14.10;9.85;;;;;;;23.09;53.19;98782.21;1699414;84;25703;-89
2022/05/02 08:12:57;;;;;;;12.90;10.55;;;;;;;23.10;53.08;98772.62;1699369;83;26758;-89
2022/05/02 08:15:48;;;;;;;13.22;10.15;;;;;;;23.11;52.93;98777.03;1698858;84;25404;-89
2022/05/02 08:18:46;;;;;;;15.20;10.72;;;;;;;23.11;52.81;98771.45;1699213;84;25704;-89
2022/05/02 08:21:26;;;;;;;13.75;10.70;;;;;;;23.13;52.73;98778.81;1693497;84;26963;-89
2022/05/02 08:27:31;;;;;;;15.95;10.90;;;;;;;23.15;52.54;98771.66;1699094;84;25744;-89
2022/05/02 08:30:17;;;;;;;13.55;10.08;;;;;;;23.16;52.37;98777.44;1698815;84;25700;-89
2022/05/02 08:32:56;;;;;;;15.03;10.75;;;;;;;23.15;52.31;98770.26;1699052;84;25664;-89
2022/05/02 08:35:52;;;;;;;14.60;10.80;;;;;;;23.16;52.40;98771.84;1699083;84;26075;-90
2022/05/02 08:38:48;;;;;;;15.38;10.32;;;;;;;23.17;52.15;98769.86;1699384;84;25637;-89
2022/05/02 08:41:23;;;;;;;12.43;9.73;;;;;;;23.17;52.11;98767.84;1699005;84;27991;-88
2022/05/02 08:44:11;;;;;;;15.10;10.20;;;;;;;23.18;51.89;98758.28;1699161;84;25679;-88
2022/05/02 08:47:31;;;;;;;13.60;10.00;;;;;;;23.18;51.95;98760.27;1699447;84;25616;-88
2022/05/02 08:50:35;;;;;;;15.72;9.85;;;;;;;23.18;51.92;98759.67;1699204;83;26189;-88
2022/05/02 08:53:51;;;;;;;12.95;9.88;;;;;;;23.19;51.75;98754.28;1699548;82;25440;-88
2022/05/02 08:56:29;;;;;;;12.40;9.68;;;;;;;23.19;51.83;98748.69;1696884;83;28432;-89
2022/05/02 08:59:38;;;;;;;14.05;9.50;;;;;;;23.19;51.73;98749.28;1688730;83;25739;-90
2022/05/02 09:02:32;;;;;;;12.97;9.30;;;;;;;23.19;51.82;98743.10;1686956;84;25475;-90
2022/05/02 09:05:21;;;;;;;12.23;9.53;;;;;;;23.21;51.82;98743.29;1685778;84;26993;-91
2022/05/02 09:08:13;;;;;;;11.33;9.00;;;;;;;23.21;51.84;98739.09;1607556;89;25942;-90
2022/05/02 09:11:12;;;;;;;14.45;9.10;;;;;;;23.19;51.77;98734.72;1608190;88;27513;-90
2022/05/02 09:14:07;;;;;;;11.73;8.80;;;;;;;23.21;51.62;98735.72;1651364;86;25497;-89
2022/05/02 09:16:41;;;;;;;12.73;8.80;;;;;;;23.21;51.38;98735.72;1639569;87;25705;-89
2022/05/02 09:19:45;;;;;;;11.73;8.88;;;;;;;23.19;51.38;98737.51;1651598;86;26015;-89
2022/05/02 09:22:41;;;;;;;11.10;8.10;;;;;;;23.21;51.36;98729.31;1638586;86;25667;-90
2022/05/02 09:25:14;;;;;;;10.58;8.58;;;;;;;23.20;51.44;98734.09;1651180;86;28118;-89
2022/05/02 09:27:55;;;;;;;11.85;8.40;;;;;;;23.19;51.48;98725.52;1637103;87;25632;-89
2022/05/02 09:30:54;;;;;;;12.47;8.38;;;;;;;23.18;51.37;98728.13;1647954;86;25711;-89
2022/05/02 09:33:31;;;;;;;11.60;8.55;;;;;;;23.19;51.34;98731.11;1629469;87;26783;-89
2022/05/02 09:36:18;;;;;;;12.10;8.63;;;;;;;23.18;51.27;98730.33;1623783;87;25467;-90
2022/05/02 09:38:51;;;;;;;10.53;7.70;;;;;;;23.21;50.87;98727.33;1611185;89;27541;-90
2022/05/02 09:41:59;;;;;;;9.75;7.75;;;;;;;23.22;50.52;98727.52;1623043;88;25730;-90
2022/05/02 09:51:42;;;;;;;10.95;8.08;;;;;;;23.22;50.80;98721.92;1599837;89;25471;-91
2022/05/02 09:58:03;;;;;;;10.25;8.00;;;;;;;23.23;50.90;98715.75;1605574;87;25848;-89
2022/05/02 10:01:11;;;;;;;13.38;8.28;;;;;;;23.23;50.80;98715.13;1618892;88;25731;-90
2022/05/02 10:03:41;;;;;;;9.03;7.35;;;;;;;23.23;50.38;98711.55;1592585;90;25882;-89
2022/05/02 10:06:23;;;;;;;10.28;7.53;;;;;;;23.22;50.40;98702.36;1624927;88;25771;-90
2022/05/02 10:09:00;;;;;;;10.78;8.25;;;;;;;23.21;50.29;98700.77;1616983;87;26220;-90
2022/05/02 10:11:50;;;;;;;9.10;7.05;;;;;;;23.21;50.36;98698.56;1631396;87;25600;-89
2022/05/02 10:14:50;;;;;;;8.78;7.47;;;;;;;23.23;50.16;98694.16;1625054;88;25640;-89
2022/05/02 10:17:28;;;;;;;9.30;7.40;;;;;;;23.20;49.82;98687.97;1624982;88;26911;-89
2022/05/02 10:20:19;;;;;;;10.45;8.10;;;;;;;23.19;49.72;98688.59;1607692;88;25321;-90
2022/05/02 10:23:00;;;;;;;9.05;7.22;;;;;;;23.19;49.56;98681.60;1624900;88;28148;-89
2022/05/02 10:25:57;;;;;;;10.43;7.10;;;;;;;23.17;49.45;98672.80;1624493;88;25739;-90
2022/05/02 10:29:10;;;;;;;10.48;6.97;;;;;;;23.16;49.24;98674.02;1624740;88;25764;-90
2022/05/02 10:31:40;;;;;;;9.43;7.50;;;;;;;23.15;49.34;98668.23;1624595;88;26142;-89
2022/05/02 10:34:08;;;;;;;8.35;6.92;;;;;;;23.15;49.46;98673.02;1603159;88;25558;-89
2022/05/02 10:36:41;;;;;;;8.90;6.90;;;;;;;23.13;49.53;98667.02;1624824;88;27184;-90
2022/05/02 10:39:32;;;;;;;11.48;6.97;;;;;;;23.14;49.48;98671.42;1624840;87;25490;-89
2022/05/02 10:42:02;;;;;;;9.25;6.67;;;;;;;23.11;49.45;98657.63;1647405;87;25796;-89
2022/05/02 10:44:32;;;;;;;10.75;7.28;;;;;;;23.11;49.46;98656.23;1588611;89;26089;-89
2022/05/02 10:47:03;;;;;;;8.75;7.15;;;;;;;23.12;49.49;98657.85;1643634;86;25739;-89
2022/05/02 10:49:58;;;;;;;;;;;;;;;23.12;49.52;98643.06;1650220;86;28291;-89
2022/05/02 10:52:53;;;;;;;9.10;6.30;;;;;;;23.13;49.29;98646.05;1634862;87;25782;-89
2022/05/02 10:55:27;;;;;;;9.35;6.80;;;;;;;23.09;49.30;98643.87;1675064;85;25724;-89
2022/05/02 10:57:59;;;;;;;8.55;6.60;;;;;;;23.10;49.28;98644.05;1620211;86;26074;-89
2022/05/02 11:00:28;;;;;;;8.75;6.17;;;;;;;23.10;49.41;98642.07;1607049;88;25496;-89
2022/05/02 11:03:44;;;;;;;10.63;6.85;;;;;;;23.10;49.48;98639.86;1635895;86;27513;-90
2022/05/02 11:06:26;;;;;;;7.45;6.35;;;;;;;23.12;49.47;98639.69;1635338;85;25771;-90
2022/05/02 11:08:58;;;;;;;9.03;6.62;;;;;;;23.12;49.56;98639.69;1629730;87;25750;-89
2022/05/02 11:11:50;;;;;;;11.15;6.50;;;;;;;23.12;49.59;98631.89;1633065;86;26044;-89
2022/05/02 11:14:34;;;;;;;9.00;6.60;;;;;;;23.11;49.62;98633.09;1631999;87;25623;-89
2022/05/02 11:17:28;;;;;;;9.03;6.80;;;;;;;23.11;49.60;98639.47;1630965;88;27468;-90
2022/05/02 11:20:43;;;;;;;8.03;6.20;;;;;;;23.11;49.39;98631.70;1610799;87;25964;-89
2022/05/02 11:23:14;;;;;;;7.47;5.97;;;;;;;23.10;49.09;98633.69;1631136;87;25645;-90
2022/05/02 11:25:49;;;;;;;7.15;5.97;;;;;;;23.08;49.15;98624.12;1631586;87;26006;-90
2022/05/02 11:28:30;;;;;;;8.20;6.53;;;;;;;23.09;49.09;98623.72;1631064;87;25711;-92
2022/05/02 11:31:07;;;;;;;7.50;6.42;;;;;;;23.08;49.07;98622.09;1622242;86;27424;-91
2022/05/02 11:33:50;;;;;;;7.87;6.05;;;;;;;23.08;49.05;98621.32;1632905;87;25870;-89
2022/05/02 11:36:22;;;;;;;7.97;6.10;;;;;;;23.06;49.03;98621.10;1629655;87;25811;-89
2022/05/02 11:38:55;;;;;;;8.33;6.00;;;;;;;23.05;48.87;98625.69;1625147;87;26905;-89
2022/05/02 11:41:22;;;;;;;6.97;6.22;;;;;;;23.05;48.83;98626.50;1605943;88;25766;-92
2022/05/02 11:43:52;;;;;;;6.67;5.95;;;;;;;23.04;48.42;98621.31;1631779;87;27444;-91
2022/05/02 11:46:26;;;;;;;7.78;6.40;;;;;;;23.01;48.51;98615.93;1632402;87;33650;-92
2022/05/02 11:49:34;;;;;;;7.97;5.83;;;;;;;23.03;48.49;98612.12;1629396;87;25822;-92
2022/05/02 11:52:04;;;;;;;8.93;6.15;;;;;;;23.03;48.53;98614.13;1632237;87;26113;-90
2022/05/02 11:54:42;;;;;;;6.03;5.20;;;;;;;23.01;48.67;98608.95;1632265;86;25727;-90
2022/05/02 11:57:29;;;;;;;6.22;5.33;;;;;;;22.99;48.75;98609.13;1630820;87;28255;-91
2022/05/02 12:00:15;;;;;;;7.45;5.50;;;;;;;22.98;48.83;98600.55;1642055;87;26046;-90
2022/05/02 12:02:52;;;;;;;6.75;5.47;;;;;;;22.98;48.88;98605.55;1665550;85;25703;-89
2022/05/02 12:05:23;;;;;;;8.23;5.60;;;;;;;22.97;48.79;98602.54;1672061;85;26062;-90
2022/05/02 12:07:57;;;;;;;6.20;5.35;;;;;;;22.98;48.85;98604.74;1669016;85;25748;-90
2022/05/02 12:10:45;;;;;;;6.37;5.22;;;;;;;22.98;48.87;98604.74;1669654;85;28117;-90
2022/05/02 12:13:15;;;;;;;5.67;5.08;;;;;;;22.96;48.88;98599.55;1662904;85;25691;-91
2022/05/02 12:16:00;;;;;;;6.60;5.50;;;;;;;22.96;48.87;98597.34;1663336;85;25459;-91
2022/05/02 12:18:50;;;;;;;6.87;5.62;;;;;;;22.94;48.87;98592.97;1663281;85;25539;-91
2022/05/02 12:21:39;;;;;;;6.08;5.40;;;;;;;22.94;48.89;98591.57;1655916;85;25715;-90
2022/05/02 12:24:09;;;;;;;6.90;5.55;;;;;;;22.93;48.98;98584.39;1655641;86;27399;-90
2022/05/02 12:26:46;;;;;;;7.25;5.33;;;;;;;22.92;49.10;98584.20;1655778;85;26098;-92
2022/05/02 12:29:18;;;;;;;6.78;5.60;;;;;;;22.92;49.11;98584.20;1655634;86;25437;-91